Data for 03/03/2010

Time Sea-Level Adjusted Pressure Absolute Pressure Temperature Relative Humidity Dew Point   
(mb) (inHg) (mb) (inHg) (C) (F) (%) (C) (F)
00:05 1013 29.91 842 24.86 3.8 38.8 47 -6.5 20.4
00:10 1013 29.91 842 24.86 3.7 38.6 48 -6.4 20.5
00:15 1013 29.91 842 24.86 3.6 38.4 49 -6.3 20.7
00:20 1013 29.91 842 24.86 3.6 38.5 48 -6.3 20.7
00:25 1013 29.91 842 24.86 3.5 38.2 49 -6.3 20.7
00:30 1013 29.91 842 24.86 3.4 38.1 49 -6.3 20.7
00:35 1013 29.91 842 24.86 3.2 37.8 49 -6.4 20.4
00:40 1013 29.91 842 24.86 3.5 38.2 48 -6.5 20.3
00:45 1013 29.91 842 24.86 3.6 38.4 49 -6.2 20.8
00:50 1013 29.91 842 24.86 3.4 38.1 49 -6.3 20.7
00:55 1013 29.91 842 24.86 3.4 38 49 -6.3 20.6
01:00 1013 29.91 842 24.86 3.4 38.2 48 -6.7 20
01:05 1013 29.91 842 24.86 3.6 38.5 49 -6 21.2
01:10 1013 29.91 842 24.86 3.3 37.9 50 -6.2 20.8
01:15 1013 29.91 842 24.86 3.2 37.7 50 -6.3 20.7
01:20 1013 29.91 842 24.86 2.9 37.1 51 -6.3 20.7
01:25 1013 29.91 842 24.86 2.9 37.2 51 -6.3 20.6
01:30 1013 29.91 842 24.86 3.1 37.7 49 -6.6 20.1
01:35 1013 29.91 842 24.86 3.2 37.8 49 -6.4 20.4
01:40 1013 29.91 842 24.86 3 37.5 49 -6.8 19.8
01:45 1013 29.91 842 24.86 3.2 37.8 48 -6.8 19.7
01:50 1013 29.91 842 24.86 3.1 37.5 50 -6.2 20.8
01:55 1013 29.91 842 24.86 3 37.4 50 -6.3 20.6
02:00 1013 29.91 842 24.86 2.7 36.9 52 -6.1 21.1
02:05 1013 29.91 842 24.86 2.6 36.6 52 -6.4 20.6
02:10 1013 29.91 842 24.86 3 37.5 50 -6.4 20.4
02:15 1013 29.91 842 24.86 3.4 38.1 50 -6 21.2
02:20 1013 29.91 842 24.86 3.1 37.6 51 -6.2 20.9
02:25 1013 29.91 842 24.86 3 37.5 52 -5.9 21.5
02:30 1013 29.91 842 24.86 3 37.3 53 -5.8 21.6
02:35 1013 29.91 842 24.86 2.8 37.1 54 -5.7 21.8
02:40 1012 29.88 842 24.86 2.9 37.2 53 -5.7 21.7
02:45 1012 29.88 842 24.86 2.6 36.8 57 -5.1 22.8
02:50 1012 29.88 842 24.86 2.1 35.8 57 -5.4 22.2
02:55 1012 29.88 842 24.86 2.4 36.4 56 -5.5 22.2
03:00 1012 29.88 842 24.86 2.6 36.7 56 -5.3 22.4
03:05 1012 29.88 841 24.83 2.7 36.8 55 -5.4 22.4
03:10 1012 29.88 841 24.83 2.7 36.9 55 -5.4 22.3
03:15 1012 29.88 841 24.83 2.8 37 56 -5.2 22.6
03:20 1012 29.88 841 24.83 2.5 36.5 57 -5.2 22.6
03:25 1012 29.88 841 24.83 2.6 36.7 57 -5.1 22.8
03:30 1012 29.88 841 24.83 2.7 36.9 55 -5.4 22.3
03:35 1012 29.88 841 24.83 2.9 37.3 55 -5.1 22.8
03:40 1012 29.88 841 24.83 2.9 37.2 56 -5.1 22.8
03:45 1012 29.88 841 24.83 3 37.3 54 -5.6 22
03:50 1012 29.88 841 24.83 3.1 37.6 53 -5.5 22.1
03:55 1012 29.88 841 24.83 3.2 37.8 53 -5.5 22.1
04:00 1012 29.88 841 24.83 3.2 37.8 54 -5.1 22.8
04:05 1012 29.88 841 24.83 3.1 37.6 54 -5.3 22.5
04:10 1012 29.88 842 24.86 3 37.4 56 -5 23
04:15 1012 29.88 842 24.86 2.8 37.1 58 -4.7 23.5
04:20 1012 29.88 842 24.86 2.7 36.9 57 -4.9 23.1
04:25 1012 29.88 842 24.86 2.6 36.7 57 -5 23.1
04:30 1012 29.88 842 24.86 2.6 36.6 56 -5.3 22.4
04:35 1012 29.88 842 24.86 2.8 37 57 -4.9 23.1
04:40 1012 29.88 842 24.86 2.7 36.9 55 -5.4 22.2
04:45 1012 29.88 842 24.86 3.1 37.5 54 -5.4 22.3
04:50 1012 29.88 842 24.86 3.1 37.6 55 -5.1 22.9
04:55 1012 29.88 842 24.86 2.8 37.1 57 -4.9 23.3
05:00 1012 29.88 842 24.86 2.8 37 57 -4.8 23.3
05:05 1012 29.88 842 24.86 2.6 36.7 59 -4.6 23.7
05:10 1012 29.88 842 24.86 2.5 36.5 58 -5 23
05:15 1012 29.88 842 24.86 2.6 36.7 58 -4.9 23.2
05:20 1012 29.88 842 24.86 2.7 36.9 57 -5 23
05:25 1012 29.88 842 24.86 2.9 37.2 56 -5.1 22.9
05:30 1012 29.88 842 24.86 2.9 37.3 55 -5.2 22.7
05:35 1012 29.88 842 24.86 3 37.4 55 -5.1 22.9
05:40 1012 29.88 842 24.86 3 37.4 57 -4.7 23.5
05:45 1012 29.88 842 24.86 2.9 37.3 57 -4.8 23.3
05:50 1012 29.88 842 24.86 3 37.5 57 -4.8 23.4
05:55 1012 29.88 842 24.86 3.2 37.8 56 -4.9 23.3
06:00 1012 29.88 842 24.86 3.3 37.9 56 -4.6 23.8
06:05 1012 29.88 842 24.86 3.1 37.6 60 -4 24.7
06:10 1012 29.88 842 24.86 2.8 37 59 -4.5 23.9
06:15 1012 29.88 842 24.86 2.8 37 63 -3.7 25.4
06:20 1012 29.88 842 24.86 2.5 36.5 64 -3.6 25.5
06:25 1012 29.88 842 24.86 2.4 36.4 62 -4.2 24.5
06:30 1012 29.88 842 24.86 2.5 36.5 62 -4 24.8
06:35 1012 29.88 842 24.86 2.5 36.6 63 -3.9 25
06:40 1012 29.88 842 24.86 2.5 36.5 65 -3.4 25.8
06:45 1012 29.88 841 24.83 2.3 36.1 66 -3.5 25.7
06:50 1012 29.88 842 24.86 1.9 35.5 67 -3.6 25.5
06:55 1012 29.88 841 24.83 2 35.5 66 -3.8 25.1
07:00 1012 29.88 841 24.83 2.4 36.3 66 -3.4 25.9
07:05 1012 29.88 841 24.83 3.1 37.6 62 -3.5 25.7
07:10 1012 29.88 841 24.83 3.3 38 62 -3.2 26.2
07:15 1012 29.88 841 24.83 3.3 37.9 64 -2.9 26.7
07:20 1012 29.88 841 24.83 3 37.4 65 -2.9 26.8
07:25 1012 29.88 841 24.83 2.7 36.9 66 -2.9 26.7
07:30 1012 29.88 841 24.83 1.8 35.3 69 -3.3 26.1
07:35 1012 29.88 841 24.83 2 35.5 68 -3.3 26.1
07:40 1012 29.88 841 24.83 2.4 36.2 68 -3 26.6
07:45 1012 29.88 841 24.83 2.4 36.4 67 -3 26.6
07:50 1012 29.88 841 24.83 2.4 36.3 68 -3 26.6
07:55 1012 29.88 841 24.83 2.2 35.9 69 -2.9 26.8
08:00 1012 29.88 841 24.83 1.7 35 71 -3.1 26.4
08:05 1012 29.88 841 24.83 1.9 35.4 69 -3.3 26.1
08:10 1012 29.88 841 24.83 2.5 36.4 66 -3.2 26.2
08:15 1012 29.88 841 24.83 2.5 36.4 67 -3 26.6
08:20 1012 29.88 842 24.86 2.1 35.8 69 -3 26.6
08:25 1012 29.88 842 24.86 1.9 35.5 70 -3 26.6
08:30 1012 29.88 842 24.86 2 35.6 69 -3.2 26.3
08:35 1012 29.88 842 24.86 2.3 36.1 69 -2.9 26.8
08:40 1012 29.88 842 24.86 2.8 37 65 -3.2 26.2
08:45 1012 29.88 842 24.86 3.4 38.1 64 -2.8 26.9
08:50 1012 29.88 842 24.86 4 39.2 61 -2.8 27
08:55 1012 29.88 842 24.86 4.7 40.4 60 -2.4 27.7
09:00 1012 29.88 842 24.86 4.5 40.2 61 -2.4 27.6
09:05 1012 29.88 842 24.86 5 40.9 59 -2.4 27.7
09:10 1012 29.88 842 24.86 6 42.8 55 -2.2 28
09:15 1012 29.88 842 24.86 5.7 42.3 59 -1.6 29.2
09:20 1012 29.88 842 24.86 5.8 42.5 56 -2.2 28.1
09:25 1012 29.88 842 24.86 6.3 43.3 56 -1.9 28.6
09:30 1012 29.88 842 24.86 6.7 44.1 56 -1.4 29.4
09:35 1012 29.88 842 24.86 6.3 43.4 57 -1.4 29.4
09:40 1012 29.88 842 24.86 5.8 42.4 57 -2 28.4
09:45 1012 29.88 842 24.86 6.3 43.4 56 -1.9 28.6
09:50 1012 29.88 842 24.86 7 44.6 55 -1.4 29.5
09:55 1012 29.88 842 24.86 6.3 43.3 57 -1.5 29.3
10:00 1012 29.88 842 24.86 6.3 43.4 57 -1.5 29.3
10:05 1012 29.88 842 24.86 5.6 42.1 61 -1.4 29.5
10:10 1012 29.88 842 24.86 5.3 41.6 62 -1.4 29.4
10:15 1013 29.91 842 24.86 6.2 43.1 56 -1.9 28.7
10:20 1013 29.91 842 24.86 6.4 43.5 57 -1.6 29.2
10:25 1012 29.88 842 24.86 6.8 44.2 55 -1.7 28.9
10:30 1012 29.88 842 24.86 7.1 44.8 54 -1.6 29.1
10:35 1012 29.88 842 24.86 7.2 45 53 -1.6 29.1
10:40 1012 29.88 842 24.86 7.2 44.9 51 -2.4 27.7
10:45 1012 29.88 842 24.86 6.9 44.4 53 -1.9 28.5
10:50 1012 29.88 842 24.86 6.8 44.2 53 -2 28.4
10:55 1012 29.88 842 24.86 6.7 44 59 -0.8 30.5
11:00 1012 29.88 842 24.86 6.4 43.5 57 -1.5 29.3
11:05 1012 29.88 842 24.86 7.2 44.9 55 -1.2 29.8
11:10 1012 29.88 842 24.86 7 44.5 53 -1.8 28.7
11:15 1012 29.88 842 24.86 6.7 44 57 -1.3 29.6
11:20 1012 29.88 842 24.86 7.3 45.1 54 -1.4 29.6
11:25 1012 29.88 842 24.86 7.1 44.7 57 -0.8 30.5
11:30 1012 29.88 842 24.86 6.6 43.9 56 -1.6 29.2
11:35 1012 29.88 842 24.86 7.1 44.7 54 -1.6 29.1
11:40 1012 29.88 842 24.86 7.2 44.9 54 -1.6 29.1
11:45 1012 29.88 842 24.86 7.7 45.9 53 -1.3 29.7
11:50 1012 29.88 842 24.86 7.2 44.9 55 -1.2 29.8
11:55 1012 29.88 842 24.86 6.4 43.5 59 -1 30.2
12:00 1012 29.88 842 24.86 5.9 42.6 59 -1.4 29.5
12:05 1012 29.88 842 24.86 6.3 43.4 58 -1.4 29.5
12:10 1012 29.88 842 24.86 6.2 43.1 60 -1 30.3
12:15 1012 29.88 842 24.86 5.9 42.6 62 -0.8 30.5
12:20 1012 29.88 842 24.86 6.3 43.4 57 -1.5 29.3
12:25 1012 29.88 842 24.86 7.2 45 54 -1.4 29.4
12:30 1012 29.88 842 24.86 7.8 46.1 53 -1.2 29.8
12:35 1012 29.88 841 24.83 7.7 45.9 53 -1.1 30
12:40 1012 29.88 841 24.83 7 44.6 58 -0.8 30.6
12:45 1012 29.88 841 24.83 5.8 42.5 61 -1 30.1
12:50 1012 29.88 841 24.83 5.5 41.9 61 -1.3 29.6
12:55 1012 29.88 841 24.83 5.7 42.3 59 -1.6 29
13:00 1012 29.88 841 24.83 5.7 42.2 60 -1.4 29.5
13:05 1012 29.88 841 24.83 5.6 42.1 61 -1.4 29.5
13:10 1012 29.88 841 24.83 6.1 43 59 -1.3 29.6
13:15 1012 29.88 841 24.83 6.1 43 59 -1.3 29.6
13:20 1012 29.88 841 24.83 6.4 43.5 57 -1.4 29.5
13:25 1012 29.88 841 24.83 6.8 44.2 55 -1.7 29
13:30 1012 29.88 841 24.83 7.1 44.8 52 -2.1 28.3
13:35 1012 29.88 841 24.83 7.3 45.2 50 -2.3 27.8
13:40 1012 29.88 841 24.83 8.3 47 49 -1.7 29
13:45 1012 29.88 841 24.83 8.1 46.5 50 -1.8 28.7
13:50 1012 29.88 841 24.83 8.2 46.7 49 -2 28.4
13:55 1012 29.88 841 24.83 8 46.4 51 -1.6 29.2
14:00 1012 29.88 841 24.83 7.9 46.3 49 -2.2 28.1
14:05 1012 29.88 841 24.83 8.2 46.7 49 -1.9 28.5
14:10 1012 29.88 841 24.83 8.5 47.3 48 -1.7 28.9
14:15 1012 29.88 841 24.83 8.6 47.4 48 -1.8 28.7
14:20 1012 29.88 841 24.83 8.5 47.3 47 -2.2 28.1
14:25 1012 29.88 841 24.83 8.5 47.3 47 -2.1 28.2
14:30 1012 29.88 841 24.83 8.5 47.3 46 -2.3 27.8
14:35 1012 29.88 841 24.83 8.9 47.9 46 -2 28.4
14:40 1012 29.88 841 24.83 8.7 47.7 46 -2.4 27.7
14:45 1012 29.88 841 24.83 8.1 46.7 48 -2.2 28
14:50 1012 29.88 841 24.83 8.4 47.1 46 -2.4 27.6
14:55 1012 29.88 841 24.83 8.2 46.7 47 -2.4 27.6
15:00 1012 29.88 841 24.83 8.3 46.9 46 -2.5 27.5
15:05 1012 29.88 841 24.83 8.4 47.1 46 -2.6 27.3
15:10 1012 29.88 841 24.83 8.5 47.2 45 -2.7 27.1
15:15 1012 29.88 841 24.83 8.8 47.9 44 -2.8 26.9
15:20 1012 29.88 841 24.83 9.4 48.8 43 -2.7 27.2
15:25 1012 29.88 841 24.83 9.2 48.5 44 -2.3 27.8
15:30 1012 29.88 841 24.83 9.5 49 42 -2.7 27.2
15:35 1012 29.88 841 24.83 9.5 49.1 43 -2.5 27.4
15:40 1012 29.88 841 24.83 9.2 48.5 43 -2.7 27.2
15:45 1012 29.88 841 24.83 9.1 48.3 42 -3 26.5
15:50 1012 29.88 841 24.83 9.1 48.3 43 -2.8 26.9
15:55 1012 29.88 841 24.83 8.8 47.9 44 -2.7 27.1
16:00 1012 29.88 841 24.83 9 48.2 41 -3.4 25.8
16:05 1012 29.88 841 24.83 9.5 49.1 41 -3.2 26.2
16:10 1012 29.88 841 24.83 9.7 49.4 40 -3.3 26.1
16:15 1012 29.88 841 24.83 9.2 48.6 41 -3.2 26.2
16:20 1012 29.88 841 24.83 8.8 47.8 42 -3.4 25.9
16:25 1012 29.88 841 24.83 8.9 48 41 -3.5 25.8
16:30 1012 29.88 841 24.83 9.3 48.7 40 -3.4 25.8
16:35 1012 29.88 841 24.83 9.4 48.9 41 -3.2 26.3
16:40 1012 29.88 841 24.83 9.3 48.7 42 -3 26.7
16:45 1012 29.88 841 24.83 8.8 47.9 43 -3 26.7
16:50 1012 29.88 841 24.83 8.7 47.6 43 -3.2 26.2
16:55 1012 29.88 841 24.83 8.6 47.5 43 -3.2 26.3
17:00 1012 29.88 841 24.83 8.6 47.6 44 -2.9 26.8
17:05 1012 29.88 841 24.83 8.7 47.7 43 -3 26.5
17:10 1012 29.88 841 24.83 8.8 47.8 43 -3 26.6
17:15 1012 29.88 841 24.83 9 48.3 42 -3.2 26.3
17:20 1012 29.88 841 24.83 9 48.1 42 -3.4 26
17:25 1012 29.88 841 24.83 9 48.2 42 -3.2 26.3
17:30 1012 29.88 841 24.83 8.9 48 43 -2.9 26.8
17:35 1012 29.88 841 24.83 8.4 47 45 -3 26.6
17:40 1012 29.88 841 24.83 8.2 46.8 44 -3.3 26
17:45 1012 29.88 841 24.83 8.1 46.5 45 -3.1 26.4
17:50 1012 29.88 841 24.83 8.2 46.7 44 -3.3 26.1
17:55 1012 29.88 841 24.83 8.2 46.8 44 -3.3 26.1
18:00 1012 29.88 841 24.83 8 46.3 45 -3.3 26.1
18:05 1012 29.88 841 24.83 7.7 45.8 46 -3.2 26.2
18:10 1012 29.88 841 24.83 7.4 45.2 47 -3.2 26.2
18:15 1012 29.88 841 24.83 7.2 45 47 -3.3 26.1
18:20 1012 29.88 841 24.83 7.2 44.9 47 -3.3 26
18:25 1012 29.88 841 24.83 7.2 44.9 47 -3.3 26.1
18:30 1012 29.88 841 24.83 7.2 44.9 47 -3.3 26.1
18:35 1012 29.88 841 24.83 6.8 44.2 50 -2.9 26.7
18:40 1012 29.88 841 24.83 6.4 43.5 51 -3.1 26.4
18:45 1012 29.88 841 24.83 6.2 43.2 52 -2.9 26.8
18:50 1012 29.88 841 24.83 5.9 42.7 53 -2.9 26.8
18:55 1012 29.88 841 24.83 5.6 42.1 55 -2.7 27.1
19:00 1012 29.88 841 24.83 5.1 41.1 56 -2.9 26.7
19:05 1012 29.88 841 24.83 4.7 40.5 58 -2.8 27
19:10 1012 29.88 841 24.83 4.3 39.8 60 -2.8 26.9
19:15 1012 29.88 841 24.83 4 39.2 61 -2.9 26.9
19:20 1012 29.88 841 24.83 3.8 38.9 61 -3 26.5
19:25 1012 29.88 841 24.83 3.8 38.9 61 -3.1 26.5
19:30 1012 29.88 841 24.83 4 39.2 58 -3.5 25.7
19:35 1012 29.88 841 24.83 4.6 40.3 55 -3.6 25.6
19:40 1012 29.88 841 24.83 5.2 41.3 54 -3.3 26
19:45 1012 29.88 841 24.83 5.3 41.6 54 -3.3 26.1
19:50 1012 29.88 841 24.83 5.4 41.7 51 -4 24.8
19:55 1012 29.88 841 24.83 5.5 41.9 50 -4 24.8
20:00 1012 29.88 841 24.83 5.3 41.5 51 -4 24.7
20:05 1012 29.88 841 24.83 5 40.9 53 -3.7 25.3
20:10 1012 29.88 841 24.83 4.5 40.1 56 -3.5 25.6
20:15 1012 29.88 841 24.83 4.3 39.8 56 -3.6 25.6
20:20 1012 29.88 841 24.83 4.6 40.3 56 -3.5 25.8
20:25 1012 29.88 841 24.83 4.8 40.6 55 -3.6 25.6
20:30 1012 29.88 841 24.83 4.6 40.3 55 -3.7 25.3
20:35 1012 29.88 841 24.83 4.6 40.2 54 -3.8 25.1
20:40 1012 29.88 842 24.86 4.4 40 55 -3.8 25.2
20:45 1012 29.88 842 24.86 4.3 39.7 58 -3.2 26.2
20:50 1012 29.88 842 24.86 4.2 39.5 58 -3.4 25.9
20:55 1012 29.88 842 24.86 4.3 39.7 58 -3.2 26.2
21:00 1012 29.88 842 24.86 4.4 39.9 57 -3.4 25.9
21:05 1012 29.88 842 24.86 4.3 39.7 58 -3.3 26.1
21:10 1012 29.88 842 24.86 4.1 39.4 59 -3.2 26.2
21:15 1012 29.88 842 24.86 4 39.2 58 -3.4 25.9
21:20 1012 29.88 842 24.86 3.9 39 60 -3.2 26.3
21:25 1012 29.88 842 24.86 3.6 38.5 61 -3.2 26.2
21:30 1012 29.88 842 24.86 3.4 38.2 61 -3.3 26
21:35 1012 29.88 842 24.86 3.3 38 62 -3.3 26.1
21:40 1012 29.88 842 24.86 3.3 37.9 62 -3.3 26
21:45 1012 29.88 842 24.86 3.1 37.6 63 -3.3 26.1
21:50 1012 29.88 842 24.86 3.2 37.8 61 -3.5 25.8
21:55 1013 29.91 842 24.86 3.2 37.7 61 -3.6 25.6
22:00 1012 29.88 842 24.86 3.3 37.9 61 -3.5 25.7
22:05 1012 29.88 842 24.86 3.2 37.8 60 -3.7 25.3
22:10 1012 29.88 842 24.86 3.3 37.9 61 -3.4 25.8
22:15 1013 29.91 842 24.86 3.1 37.6 62 -3.4 25.8
22:20 1013 29.91 842 24.86 3 37.3 62 -3.7 25.4
22:25 1012 29.88 842 24.86 2.9 37.2 62 -3.7 25.4
22:30 1012 29.88 842 24.86 3 37.4 62 -3.7 25.3
22:35 1012 29.88 842 24.86 2.9 37.1 62 -3.7 25.3
22:40 1012 29.88 842 24.86 2.8 37 62 -3.7 25.3
22:45 1012 29.88 842 24.86 2.6 36.7 63 -3.8 25.1
22:50 1013 29.91 842 24.86 2.6 36.7 63 -3.8 25.2
22:55 1013 29.91 842 24.86 2.4 36.4 63 -3.8 25.1
23:00 1013 29.91 842 24.86 2.3 36.1 64 -3.8 25.1
23:05 1013 29.91 842 24.86 2.2 35.9 64 -4 24.8
23:10 1013 29.91 842 24.86 2.4 36.3 62 -4.2 24.4
23:15 1013 29.91 842 24.86 2.6 36.6 61 -4.1 24.6
23:20 1013 29.91 842 24.86 2.5 36.6 61 -4.2 24.5
23:25 1013 29.91 842 24.86 2.5 36.4 61 -4.2 24.4
23:30 1013 29.91 842 24.86 2.5 36.5 61 -4.3 24.3
23:35 1013 29.91 842 24.86 2.4 36.2 61 -4.3 24.3
23:40 1013 29.91 842 24.86 2.2 36 62 -4.4 24
23:45 1013 29.91 842 24.86 2 35.6 62 -4.5 23.8
23:50 1013 29.91 842 24.86 1.9 35.4 63 -4.5 23.9
23:55 1013 29.91 842 24.86 1.8 35.2 63 -4.6 23.8
24:00 1012 29.88 842 24.86 1.9 35.4 62 -4.7 23.5